Terminal Aerodrome Forecast
Issued by NWS

Home | Current Version | Previous Version | Text Only | Print | Product List | Glossary On
Versions: 1 2 3 4 5 6 7 8 9 10 11 12 13 14 15 16 17 18 19 20 21 22 23 24
000
FTUS44 KOUN 252320
TAFPNC
TAF
KPNC 252320Z 2600/2624 16008KT P6SM -RA FEW040 SCT060 OVC100
     FM260030 16012KT P6SM FEW030 BKN080
     FM260800 16005KT 4SM BR BKN015
     FM261500 19007KT P6SM BKN030=

USA.gov is the U.S. government's official web portal to all federal, state and local government web resources and services.